createdAt,value
2024-01-06T00:01:12.311Z,12.43
2024-01-06T00:03:39.052Z,9.10
2024-01-06T00:06:06.141Z,12.18
2024-01-06T00:08:32.664Z,10.65
2024-01-06T00:10:59.166Z,10.13
2024-01-06T00:13:25.716Z,12.38
2024-01-06T00:15:52.303Z,10.93
2024-01-06T00:18:20.091Z,10.98
2024-01-06T00:20:46.742Z,10.60
2024-01-06T00:23:13.198Z,11.02
2024-01-06T00:25:40.297Z,12.65
2024-01-06T00:28:06.779Z,10.05
2024-01-06T00:30:33.480Z,13.32
2024-01-06T00:33:00.027Z,11.25
2024-01-06T00:35:26.540Z,12.40
2024-01-06T00:37:53.434Z,10.38
2024-01-06T00:40:20.793Z,11.68
2024-01-06T00:42:47.360Z,10.00
2024-01-06T00:45:14.091Z,11.60
2024-01-06T00:47:40.692Z,10.95
2024-01-06T00:50:07.594Z,11.45
2024-01-06T00:52:34.060Z,10.82
2024-01-06T00:55:00.577Z,10.68
2024-01-06T00:57:27.094Z,9.98
2024-01-06T00:59:54.657Z,10.40
2024-01-06T01:02:21.138Z,11.25
2024-01-06T01:04:48.712Z,13.80
2024-01-06T01:07:15.300Z,12.90
2024-01-06T01:09:41.917Z,13.65
2024-01-06T01:12:08.480Z,12.57
2024-01-06T01:14:35.000Z,10.65
2024-01-06T01:17:01.480Z,11.73
2024-01-06T01:19:28.122Z,10.75
2024-01-06T01:21:56.747Z,10.18
2024-01-06T01:24:23.998Z,10.95
2024-01-06T01:26:51.095Z,11.65
2024-01-06T01:29:18.315Z,10.00
2024-01-06T01:31:44.859Z,10.20
2024-01-06T01:34:11.667Z,10.73
2024-01-06T01:36:38.312Z,10.52
2024-01-06T01:39:05.055Z,12.60
2024-01-06T01:41:32.525Z,12.65
2024-01-06T01:43:59.483Z,10.45
2024-01-06T01:46:30.427Z,10.80
2024-01-06T01:48:58.538Z,10.90
2024-01-06T01:51:30.610Z,13.25
2024-01-06T01:54:02.136Z,10.23
2024-01-06T01:56:30.285Z,11.02
2024-01-06T01:58:56.819Z,11.20
2024-01-06T02:01:23.457Z,9.95
2024-01-06T02:03:50.110Z,11.00
2024-01-06T02:06:16.764Z,11.30
2024-01-06T02:08:43.295Z,9.63
2024-01-06T02:11:09.813Z,10.02
2024-01-06T02:13:37.656Z,9.88
2024-01-06T02:16:05.856Z,10.75
2024-01-06T02:18:33.290Z,11.13
2024-01-06T02:21:02.353Z,9.30
2024-01-06T02:23:30.031Z,8.95
2024-01-06T02:25:57.712Z,9.93
2024-01-06T02:28:24.172Z,14.75
2024-01-06T02:30:51.397Z,10.02
2024-01-06T02:33:20.418Z,11.27
2024-01-06T02:35:47.742Z,10.40
2024-01-06T02:38:14.291Z,11.32
2024-01-06T02:40:40.840Z,9.40
2024-01-06T02:43:07.304Z,10.00
2024-01-06T02:45:33.943Z,10.77
2024-01-06T02:48:00.593Z,10.07
2024-01-06T02:50:27.130Z,10.82
2024-01-06T02:52:53.606Z,12.13
2024-01-06T02:55:20.151Z,11.02
2024-01-06T02:57:46.764Z,13.35
2024-01-06T03:00:14.093Z,11.00
2024-01-06T03:02:43.037Z,10.38
2024-01-06T03:05:11.446Z,11.07
2024-01-06T03:07:37.970Z,9.73
2024-01-06T03:10:04.767Z,13.00
2024-01-06T03:12:31.304Z,9.73
2024-01-06T03:14:57.821Z,12.63
2024-01-06T03:17:24.310Z,12.32
2024-01-06T03:19:51.081Z,13.10
2024-01-06T03:22:17.713Z,12.32
2024-01-06T03:24:44.300Z,10.95
2024-01-06T03:27:11.029Z,12.50
2024-01-06T03:29:37.820Z,11.38
2024-01-06T03:32:04.606Z,11.57
2024-01-06T03:34:31.231Z,11.10
2024-01-06T03:36:57.722Z,10.73
2024-01-06T03:39:24.227Z,10.57
2024-01-06T03:41:50.701Z,10.95
2024-01-06T03:44:17.226Z,11.05
2024-01-06T03:46:43.773Z,11.90
2024-01-06T03:49:10.356Z,11.65
2024-01-06T03:51:36.995Z,10.18
2024-01-06T03:54:03.680Z,10.00
2024-01-06T03:56:30.153Z,10.80
2024-01-06T03:58:56.636Z,13.15
2024-01-06T04:01:23.227Z,12.23
2024-01-06T04:03:49.883Z,11.60
2024-01-06T04:06:16.609Z,12.00
2024-01-06T04:08:43.574Z,10.88
2024-01-06T04:11:10.116Z,12.18
2024-01-06T04:13:36.621Z,10.30
2024-01-06T04:16:03.798Z,10.40
2024-01-06T04:18:30.438Z,11.00
2024-01-06T04:20:58.051Z,12.38
2024-01-06T04:23:26.338Z,10.50
2024-01-06T04:25:54.195Z,10.70
2024-01-06T04:28:20.867Z,9.38
2024-01-06T04:30:47.560Z,10.75
2024-01-06T04:33:14.369Z,12.18
2024-01-06T04:35:40.992Z,13.30
2024-01-06T04:38:07.451Z,13.00
2024-01-06T04:40:34.006Z,10.13
2024-01-06T04:43:00.487Z,11.65
2024-01-06T04:45:27.065Z,11.35
2024-01-06T04:47:53.933Z,11.55
2024-01-06T04:50:20.867Z,11.87
2024-01-06T04:52:47.380Z,13.57
2024-01-06T04:55:14.655Z,13.35
2024-01-06T04:57:41.174Z,13.40
2024-01-06T05:00:08.211Z,14.13
2024-01-06T05:02:35.316Z,15.13
2024-01-06T05:05:01.943Z,12.35
2024-01-06T05:07:28.481Z,12.95
2024-01-06T05:09:55.083Z,13.68
2024-01-06T05:12:21.650Z,11.77
2024-01-06T05:14:48.227Z,15.35
2024-01-06T05:17:14.775Z,14.07
2024-01-06T05:19:41.376Z,11.27
2024-01-06T05:22:08.085Z,13.90
2024-01-06T05:24:34.698Z,12.23
2024-01-06T05:27:01.225Z,13.00
2024-01-06T05:29:28.158Z,13.65
2024-01-06T05:31:55.792Z,12.52
2024-01-06T05:34:22.462Z,13.50
2024-01-06T05:36:50.067Z,12.20
2024-01-06T05:39:17.264Z,13.02
2024-01-06T05:41:43.799Z,13.85
2024-01-06T05:44:10.332Z,13.40
2024-01-06T05:46:36.912Z,11.77
2024-01-06T05:49:05.727Z,14.38
2024-01-06T05:51:32.478Z,14.90
2024-01-06T05:54:01.991Z,18.52
2024-01-06T05:56:28.903Z,16.02
2024-01-06T05:58:56.523Z,14.77
2024-01-06T06:01:23.996Z,15.55
2024-01-06T06:03:51.785Z,13.60
2024-01-06T06:06:18.768Z,12.93
2024-01-06T06:08:46.158Z,12.32
2024-01-06T06:11:12.679Z,13.52
2024-01-06T06:13:41.786Z,14.13
2024-01-06T06:16:10.272Z,14.43
2024-01-06T06:18:36.994Z,14.40
2024-01-06T06:21:05.049Z,13.10
2024-01-06T06:23:32.619Z,13.07
2024-01-06T06:26:00.438Z,13.18
2024-01-06T06:28:27.532Z,15.68
2024-01-06T06:30:54.314Z,12.50
2024-01-06T06:33:22.112Z,13.52
2024-01-06T06:35:48.630Z,14.40
2024-01-06T06:38:15.223Z,14.32
2024-01-06T06:40:41.701Z,13.93
2024-01-06T06:43:10.016Z,13.85
2024-01-06T06:45:36.552Z,17.10
2024-01-06T06:48:03.310Z,14.35
2024-01-06T06:50:30.131Z,13.32
2024-01-06T06:52:56.661Z,14.20
2024-01-06T06:55:23.125Z,13.77
2024-01-06T06:57:49.755Z,14.85
2024-01-06T07:00:17.299Z,17.88
2024-01-06T07:02:44.006Z,16.45
2024-01-06T07:05:10.748Z,18.50
2024-01-06T07:07:37.259Z,16.52
2024-01-06T07:10:06.760Z,18.02
2024-01-06T07:12:33.471Z,18.95
2024-01-06T07:15:00.066Z,19.45
2024-01-06T07:17:26.690Z,15.63
2024-01-06T07:19:53.973Z,15.32
2024-01-06T07:22:21.040Z,16.33
2024-01-06T07:24:47.649Z,20.17
2024-01-06T07:27:14.317Z,26.67
2024-01-06T07:29:40.896Z,17.95
2024-01-06T07:32:07.491Z,16.98
2024-01-06T07:34:34.541Z,25.88
2024-01-06T07:37:01.806Z,23.10
2024-01-06T07:39:28.443Z,21.35
2024-01-06T07:41:55.184Z,20.30
2024-01-06T07:44:25.724Z,18.10
2024-01-06T07:46:53.282Z,15.60
2024-01-06T07:49:20.329Z,13.77
2024-01-06T07:51:47.375Z,13.85
2024-01-06T07:54:13.966Z,15.02
2024-01-06T07:56:40.582Z,16.08
2024-01-06T07:59:07.963Z,15.73
2024-01-06T08:01:34.514Z,19.38
2024-01-06T08:04:01.341Z,18.55
2024-01-06T08:06:28.230Z,17.63
2024-01-06T08:08:55.877Z,18.35
2024-01-06T08:11:22.520Z,17.05
2024-01-06T08:13:49.091Z,17.08
2024-01-06T08:16:15.635Z,19.55
2024-01-06T08:18:42.373Z,20.60
2024-01-06T08:21:08.932Z,19.02
2024-01-06T08:23:35.766Z,17.55
2024-01-06T08:26:02.305Z,15.52
2024-01-06T08:28:28.889Z,16.38
2024-01-06T08:30:55.576Z,16.70
2024-01-06T08:33:22.293Z,16.95
2024-01-06T08:35:54.795Z,15.35
2024-01-06T08:38:23.593Z,14.30
2024-01-06T08:40:51.385Z,15.48
2024-01-06T08:43:19.276Z,17.98
2024-01-06T08:45:45.904Z,21.35
2024-01-06T08:48:14.790Z,21.17
2024-01-06T08:50:41.682Z,19.92
2024-01-06T08:53:08.226Z,17.33
2024-01-06T08:55:34.722Z,16.65
2024-01-06T08:58:01.278Z,20.67
2024-01-06T09:00:27.955Z,18.25
2024-01-06T09:02:54.687Z,20.27
2024-01-06T09:05:21.258Z,20.83
2024-01-06T09:07:54.563Z,19.60
2024-01-06T09:10:21.856Z,25.13
2024-01-06T09:12:49.065Z,22.20
2024-01-06T09:15:15.918Z,20.98
2024-01-06T09:17:42.831Z,21.73
2024-01-06T09:20:09.888Z,27.30
2024-01-06T09:22:36.581Z,21.85
2024-01-06T09:25:03.338Z,21.65
2024-01-06T09:27:29.845Z,23.73
2024-01-06T09:29:56.375Z,30.10
2024-01-06T09:32:24.298Z,25.88
2024-01-06T09:34:51.102Z,25.48
2024-01-06T09:37:17.781Z,26.13
2024-01-06T09:39:44.392Z,26.80
2024-01-06T09:42:12.714Z,22.05
2024-01-06T09:44:39.410Z,24.92
2024-01-06T09:47:07.154Z,22.10
2024-01-06T09:49:36.094Z,20.38
2024-01-06T09:52:07.613Z,23.02
2024-01-06T09:54:37.710Z,23.58
2024-01-06T09:57:07.211Z,19.00
2024-01-06T09:59:36.064Z,19.08
2024-01-06T10:02:04.906Z,17.38
2024-01-06T10:04:31.725Z,15.88
2024-01-06T10:06:58.302Z,15.55
2024-01-06T10:09:29.188Z,16.42
2024-01-06T10:11:57.710Z,15.25
2024-01-06T10:14:25.219Z,13.68
2024-01-06T10:16:53.664Z,16.45
2024-01-06T10:19:20.805Z,12.45
2024-01-06T10:21:47.650Z,17.13
2024-01-06T10:24:14.973Z,15.27
2024-01-06T10:26:41.598Z,16.38
2024-01-06T10:29:08.176Z,14.88
2024-01-06T10:31:35.942Z,12.82
2024-01-06T10:34:02.945Z,13.73
2024-01-06T10:36:29.974Z,13.57
2024-01-06T10:38:57.044Z,13.98
2024-01-06T10:41:25.118Z,12.60
2024-01-06T10:43:52.756Z,14.20
2024-01-06T10:46:24.001Z,13.63
2024-01-06T10:48:53.573Z,12.13
2024-01-06T10:51:20.659Z,14.88
2024-01-06T10:53:49.556Z,12.95
2024-01-06T10:56:17.019Z,10.98
2024-01-06T10:58:48.472Z,11.80
2024-01-06T11:01:19.388Z,11.65
2024-01-06T11:03:49.056Z,11.50
2024-01-06T11:06:16.052Z,11.40
2024-01-06T11:08:53.147Z,12.32
2024-01-06T11:11:20.839Z,11.15
2024-01-06T11:13:49.141Z,12.93
2024-01-06T11:16:38.499Z,12.25
2024-01-06T11:19:42.187Z,13.38
2024-01-06T11:22:21.939Z,11.95
2024-01-06T11:24:50.741Z,11.82
2024-01-06T11:27:24.056Z,11.57
2024-01-06T11:29:55.568Z,11.38
2024-01-06T11:32:36.236Z,11.93
2024-01-06T11:35:11.072Z,11.25
2024-01-06T11:37:40.558Z,13.82
2024-01-06T11:40:23.042Z,12.10
2024-01-06T11:43:02.035Z,12.15
2024-01-06T11:45:29.627Z,14.07
2024-01-06T11:48:00.265Z,14.15
2024-01-06T11:50:28.356Z,13.57
2024-01-06T11:52:55.929Z,12.02
2024-01-06T11:55:22.970Z,12.18
2024-01-06T11:57:51.040Z,12.13
2024-01-06T12:00:19.008Z,12.32
2024-01-06T12:02:46.288Z,12.20
2024-01-06T12:05:18.973Z,10.07
2024-01-06T12:08:05.795Z,12.32
2024-01-06T12:10:33.342Z,11.18
2024-01-06T12:13:03.098Z,10.32
2024-01-06T12:15:31.874Z,9.93
2024-01-06T12:17:58.934Z,11.98
2024-01-06T12:20:27.233Z,9.25
2024-01-06T12:22:54.536Z,9.07
2024-01-06T12:25:26.298Z,10.43
2024-01-06T12:30:25.056Z,9.27
2024-01-06T12:32:53.793Z,9.43
2024-01-06T12:35:23.954Z,10.07
2024-01-06T12:37:50.719Z,11.45
2024-01-06T12:40:18.721Z,9.85
2024-01-06T12:42:46.507Z,8.02
2024-01-06T12:45:14.326Z,8.18
2024-01-06T12:47:43.052Z,10.65
2024-01-06T12:50:10.049Z,7.32
2024-01-06T12:52:36.895Z,10.93
2024-01-06T12:55:04.510Z,9.13
2024-01-06T12:57:31.359Z,8.75
2024-01-06T12:59:57.989Z,10.80
2024-01-06T13:02:24.520Z,9.05
2024-01-06T13:04:51.099Z,8.10
2024-01-06T13:07:17.779Z,9.05
2024-01-06T13:09:45.657Z,6.93
2024-01-06T13:12:12.258Z,9.75
2024-01-06T13:14:39.407Z,8.57
2024-01-06T13:17:07.161Z,7.85
2024-01-06T13:19:35.195Z,7.05
2024-01-06T13:22:02.236Z,9.57
2024-01-06T13:24:28.948Z,8.68
2024-01-06T13:26:55.578Z,9.48
2024-01-06T13:29:22.093Z,8.25
2024-01-06T13:31:49.356Z,7.78
2024-01-06T13:34:16.076Z,9.55
2024-01-06T13:36:42.882Z,8.88
2024-01-06T13:39:09.437Z,10.15
2024-01-06T13:41:36.588Z,17.23
2024-01-06T13:44:03.321Z,7.25
2024-01-06T13:46:35.794Z,8.20
2024-01-06T13:49:03.454Z,6.93
2024-01-06T13:51:30.095Z,7.63
2024-01-06T13:53:56.799Z,6.32
2024-01-06T13:56:23.314Z,7.43
2024-01-06T13:58:50.391Z,7.03
2024-01-06T14:01:16.983Z,9.52
2024-01-06T14:03:43.743Z,8.93
2024-01-06T14:06:10.499Z,6.90
2024-01-06T14:08:37.129Z,8.75
2024-01-06T14:11:03.964Z,8.63
2024-01-06T14:13:32.939Z,6.93
2024-01-06T14:16:01.037Z,7.70
2024-01-06T14:18:28.837Z,7.50
2024-01-06T14:20:56.723Z,6.93
2024-01-06T14:23:23.591Z,6.50
2024-01-06T14:25:50.247Z,7.57
2024-01-06T14:28:16.761Z,5.72
2024-01-06T14:30:43.463Z,8.32
2024-01-06T14:33:11.075Z,7.80
2024-01-06T14:35:37.585Z,7.38
2024-01-06T14:38:04.242Z,7.13
2024-01-06T14:40:31.753Z,6.57
2024-01-06T14:42:58.765Z,10.00
2024-01-06T14:45:25.537Z,7.78
2024-01-06T14:47:52.361Z,7.57
2024-01-06T14:50:20.050Z,7.55
2024-01-06T14:52:46.821Z,6.07
2024-01-06T14:55:14.383Z,8.70
2024-01-06T14:57:41.053Z,6.93
2024-01-06T15:00:11.591Z,6.25
2024-01-06T15:02:39.570Z,6.63
2024-01-06T15:05:06.967Z,6.90
2024-01-06T15:07:34.601Z,7.05
2024-01-06T15:10:05.662Z,9.65
2024-01-06T15:12:32.429Z,7.63
2024-01-06T15:15:01.880Z,7.50
2024-01-06T15:17:28.763Z,7.30
2024-01-06T15:19:56.457Z,6.07
2024-01-06T15:22:23.903Z,8.68
2024-01-06T15:24:57.492Z,6.85
2024-01-06T15:27:25.206Z,7.25
2024-01-06T15:29:51.800Z,7.95
2024-01-06T15:32:18.343Z,8.43
2024-01-06T15:34:45.263Z,5.30
2024-01-06T15:37:11.837Z,15.00
2024-01-06T15:39:38.434Z,7.47
2024-01-06T15:42:05.159Z,5.15
2024-01-06T15:44:34.385Z,6.88
2024-01-06T15:47:00.998Z,10.23
2024-01-06T15:49:29.253Z,11.55
2024-01-06T15:51:58.404Z,9.20
2024-01-06T15:54:25.149Z,9.38
2024-01-06T15:56:51.932Z,7.32
2024-01-06T15:59:18.458Z,7.53
2024-01-06T16:01:45.268Z,6.10
2024-01-06T16:04:12.170Z,5.28
2024-01-06T16:06:38.943Z,7.95
2024-01-06T16:09:06.964Z,7.80
2024-01-06T16:11:34.530Z,8.27
2024-01-06T16:14:01.058Z,6.75
2024-01-06T16:16:30.489Z,7.95
2024-01-06T16:18:57.339Z,13.73
2024-01-06T16:21:25.280Z,8.30
2024-01-06T16:23:53.431Z,7.47
2024-01-06T16:26:21.224Z,7.70
2024-01-06T16:28:47.729Z,7.18
2024-01-06T16:31:14.374Z,5.75
2024-01-06T16:33:41.147Z,8.52
2024-01-06T16:36:11.336Z,8.20
2024-01-06T16:38:37.899Z,9.20
2024-01-06T16:41:04.974Z,9.80
2024-01-06T16:43:33.586Z,6.22
2024-01-06T16:46:00.184Z,7.10
2024-01-06T16:48:27.070Z,7.78
2024-01-06T16:50:53.775Z,7.68
2024-01-06T16:53:20.304Z,7.43
2024-01-06T16:55:46.785Z,10.85
2024-01-06T16:58:13.409Z,10.55
2024-01-06T17:00:40.175Z,10.25
2024-01-06T17:03:06.765Z,10.13
2024-01-06T17:05:34.559Z,6.53
2024-01-06T17:08:01.099Z,7.78
2024-01-06T17:10:27.666Z,12.18
2024-01-06T17:12:55.527Z,8.73
2024-01-06T17:15:25.777Z,9.10
2024-01-06T17:17:52.397Z,9.55
2024-01-06T17:20:18.992Z,9.32
2024-01-06T17:22:46.001Z,7.85
2024-01-06T17:25:16.114Z,8.20
2024-01-06T17:27:46.295Z,9.15
2024-01-06T17:30:13.701Z,8.52
2024-01-06T17:32:42.274Z,12.38
2024-01-06T17:35:09.277Z,12.23
2024-01-06T17:37:35.942Z,10.82
2024-01-06T17:40:03.018Z,9.35
2024-01-06T17:42:29.649Z,9.05
2024-01-06T17:44:56.497Z,10.15
2024-01-06T17:47:23.037Z,9.88
2024-01-06T17:49:50.110Z,12.38
2024-01-06T17:52:16.845Z,11.68
2024-01-06T17:54:43.790Z,10.13
2024-01-06T17:57:17.231Z,10.25
2024-01-06T17:59:44.296Z,10.80
2024-01-06T18:02:10.793Z,11.65
2024-01-06T18:04:37.503Z,9.98
2024-01-06T18:07:04.381Z,9.27
2024-01-06T18:09:31.038Z,11.55
2024-01-06T18:11:57.572Z,12.40
2024-01-06T18:14:24.371Z,12.50
2024-01-06T18:16:50.961Z,13.57
2024-01-06T18:19:17.624Z,15.45
2024-01-06T18:21:44.797Z,12.63
2024-01-06T18:24:11.368Z,12.60
2024-01-06T18:26:37.963Z,12.00
2024-01-06T18:29:04.466Z,17.42
2024-01-06T18:31:31.178Z,13.95
2024-01-06T18:33:57.964Z,11.32
2024-01-06T18:36:25.000Z,11.60
2024-01-06T18:38:52.319Z,12.23
2024-01-06T18:41:18.787Z,10.00
2024-01-06T18:43:46.072Z,17.20
2024-01-06T18:46:12.738Z,14.32
2024-01-06T18:48:39.532Z,12.07
2024-01-06T18:51:06.215Z,13.30
2024-01-06T18:53:32.745Z,11.18
2024-01-06T18:55:59.339Z,10.52
2024-01-06T18:58:31.913Z,14.07
2024-01-06T19:00:58.571Z,11.73
2024-01-06T19:03:25.183Z,12.27
2024-01-06T19:05:51.752Z,13.88
2024-01-06T19:08:19.354Z,16.92
2024-01-06T19:10:45.973Z,13.90
2024-01-06T19:13:12.538Z,13.07
2024-01-06T19:15:42.985Z,14.25
2024-01-06T19:18:09.893Z,12.75
2024-01-06T19:20:36.524Z,11.80
2024-01-06T19:23:09.330Z,11.75
2024-01-06T19:25:37.287Z,12.60
2024-01-06T19:28:04.354Z,10.95
2024-01-06T19:30:31.076Z,10.40
2024-01-06T19:32:58.735Z,12.75
2024-01-06T19:35:25.268Z,13.77
2024-01-06T19:37:51.814Z,10.88
2024-01-06T19:40:19.606Z,11.35
2024-01-06T19:42:49.847Z,10.93
2024-01-06T19:45:16.509Z,9.73
2024-01-06T19:47:43.078Z,11.23
2024-01-06T19:50:10.092Z,12.93
2024-01-06T19:52:37.362Z,13.55
2024-01-06T19:55:05.181Z,15.07
2024-01-06T19:57:31.821Z,14.93
2024-01-06T19:59:59.514Z,15.32
2024-01-06T20:02:26.373Z,14.38
2024-01-06T20:04:52.943Z,13.60
2024-01-06T20:07:20.604Z,11.77
2024-01-06T20:09:48.256Z,14.60
2024-01-06T20:12:14.951Z,12.05
2024-01-06T20:14:42.667Z,11.75
2024-01-06T20:17:11.319Z,11.95
2024-01-06T20:19:38.083Z,12.70
2024-01-06T20:22:07.135Z,13.80
2024-01-06T20:24:34.137Z,13.85
2024-01-06T20:27:00.964Z,11.25
2024-01-06T20:29:27.476Z,11.45
2024-01-06T20:31:54.132Z,11.52
2024-01-06T20:34:20.977Z,10.60
2024-01-06T20:36:48.949Z,16.02
2024-01-06T20:39:15.455Z,12.05
2024-01-06T20:41:41.947Z,13.02
2024-01-06T20:44:10.296Z,14.05
2024-01-06T20:46:36.992Z,12.93
2024-01-06T20:49:04.348Z,9.50
2024-01-06T20:51:30.954Z,11.30
2024-01-06T20:53:57.533Z,12.70
2024-01-06T20:56:24.007Z,11.88
2024-01-06T20:58:50.558Z,13.43
2024-01-06T21:01:17.114Z,13.48
2024-01-06T21:03:44.249Z,12.82
2024-01-06T21:06:11.302Z,13.35
2024-01-06T21:08:38.884Z,11.73
2024-01-06T21:11:07.433Z,11.95
2024-01-06T21:13:33.954Z,10.38
2024-01-06T21:16:03.932Z,11.98
2024-01-06T21:18:30.834Z,15.40
2024-01-06T21:20:57.454Z,9.27
2024-01-06T21:23:35.550Z,10.45
2024-01-06T21:26:10.721Z,9.70
2024-01-06T21:28:38.927Z,9.70
2024-01-06T21:31:07.543Z,11.45
2024-01-06T21:33:34.278Z,9.30
2024-01-06T21:36:01.850Z,10.52
2024-01-06T21:38:28.316Z,11.27
2024-01-06T21:40:54.843Z,11.90
2024-01-06T21:43:21.380Z,11.43
2024-01-06T21:45:48.015Z,10.45
2024-01-06T21:48:14.888Z,12.30
2024-01-06T21:50:41.925Z,11.45
2024-01-06T21:53:10.119Z,10.50
2024-01-06T21:55:37.846Z,14.60
2024-01-06T21:58:04.720Z,11.60
2024-01-06T22:00:31.376Z,10.05
2024-01-06T22:02:58.541Z,11.13
2024-01-06T22:05:25.222Z,10.63
2024-01-06T22:07:51.741Z,10.02
2024-01-06T22:10:18.427Z,10.82
2024-01-06T22:12:45.001Z,12.70
2024-01-06T22:15:11.499Z,13.35
2024-01-06T22:17:38.093Z,11.60
2024-01-06T22:20:05.377Z,10.85
2024-01-06T22:22:31.939Z,12.35
2024-01-06T22:24:58.765Z,10.40
2024-01-06T22:27:26.450Z,9.60
2024-01-06T22:29:53.025Z,11.63
2024-01-06T22:32:19.494Z,11.25
2024-01-06T22:34:46.188Z,11.02
2024-01-06T22:37:12.967Z,12.23
2024-01-06T22:39:42.974Z,12.38
2024-01-06T22:42:09.547Z,11.27
2024-01-06T22:44:36.214Z,14.32
2024-01-06T22:47:02.958Z,11.68
2024-01-06T22:49:29.889Z,11.93
2024-01-06T22:51:56.752Z,11.63
2024-01-06T22:54:24.427Z,11.68
2024-01-06T22:56:50.957Z,12.93
2024-01-06T22:59:17.582Z,18.02
2024-01-06T23:01:44.199Z,16.95
2024-01-06T23:04:10.892Z,13.05
2024-01-06T23:06:38.022Z,14.27
2024-01-06T23:09:05.680Z,15.63
2024-01-06T23:11:32.564Z,12.30
2024-01-06T23:13:59.251Z,13.52
2024-01-06T23:16:25.897Z,11.77
2024-01-06T23:18:54.196Z,11.95
2024-01-06T23:21:21.481Z,11.73
2024-01-06T23:23:49.166Z,12.25
2024-01-06T23:26:16.143Z,11.07
2024-01-06T23:28:42.679Z,12.48
2024-01-06T23:31:09.489Z,11.05
2024-01-06T23:33:36.227Z,12.82
2024-01-06T23:36:04.084Z,11.48
2024-01-06T23:38:30.657Z,13.70
2024-01-06T23:40:57.134Z,13.18
2024-01-06T23:43:23.636Z,12.73
2024-01-06T23:45:50.238Z,12.07
2024-01-06T23:48:16.802Z,11.32
2024-01-06T23:50:43.469Z,12.48
2024-01-06T23:53:11.371Z,13.40
2024-01-06T23:55:37.915Z,14.60
2024-01-06T23:58:04.849Z,16.67
